Charles City, IA

9:28 PM CDT on September 14, 2014 (GMT -0500)
Mason City Municipal | Change Station
CLOSE
Current Station
Airport
Location: Mason City,
Elevation: 1214 ft
Nearby Weather Stations

Elev 1214 ft 43.16 °N, 93.33 °W | Updated 35 minutes ago

Overcast
Overcast
52 °F
Feels Like 52 °F
N
0
Wind Variable Wind from North

Today
High -- | Low -- °F
--% Chance of Precip.
Yesterday
High -- | Low -- °F
Precip. -- in
6:49 AM 7:22 PM
Waning Gibbous, 60% visible
Pressure 30.14 in
Visibility 10.0 miles
Clouds Few 6500 ft
Dew Point 51 °F
Humidity 97%
Rainfall 0.00 in
Snow Depth Not available.
UV 0 out of 12
Pollen 5.50 out of 12
Air Quality Not available.
Flu Activity Not available.
METAR KMCW 150153Z AUTO 00000KT 10SM FEW065 11/11 A3014 RMK AO2 SLP204 T01110106 $

More Conditions Fewer Conditions

Pressure 30.14 in
Visibility 10.0 miles
Clouds Few 6500 ft
Dew Point 51 °F
Humidity 97%
Rainfall 0.00 in
Snow Depth Not available.
UV 0 out of 12
Pollen 5.50 out of 12
Air Quality Not available.
Flu Activity Not available.
METAR KMCW 150153Z AUTO 00000KT 10SM FEW065 11/11 A3014 RMK AO2 SLP204 T01110106 $

More Conditions Fewer Conditions

10-Day Weather Forecast

Almanac

Astronomy

Sep. 14, 2014 Rise Set
Actual Time 6:49 AM CDT 7:22 PM CDT
Civil Twilight 6:20 AM CDT 7:50 PM CDT
Nautical Twilight 5:46 AM CDT 8:24 PM CDT
Astronomical Twilight 5:11 AM CDT 8:59 PM CDT
Moon 11:06 PM CDT (9/14) 1:04 PM CDT (9/14)
Length of Visible Light 13h 30m
Length of Day
12h 33m
Tomorrow will be 2m 54s shorter.
Waning Gibbous, 60% of the Moon is Illuminated
Today
Waning Gibbous
Sep 15
Last Quarter
Sep 24
New
Oct 1
First Quarter
Oct 8
Full

Today's Extremes

State Highs State Lows

Community

WunderPhotos

Upload Photos

1,753,381 photos uploaded!

Nearby

Snow Depth

Station Depth Elevation
No new snow has been reported.

Earthquake Activity

City Distance Mag. Time & Date
No recent earthquake activity has been reported nearby.
Minimum magnitude displayed is 2.5.

Coastal Water Temperatures

Place Temperature
No Stations Reporting

Nearby Weather Stations